Time;durP1;ratioP1;P1;durP2;ratioP2;P2;SDS_P1;SDS_P2;PMS_P1;PMS_P2;Temp;Humidity;BMP_temperature;BMP_pressure;BME280_temperature;BME280_humidity;BME280_pressure;Samples;Min_cycle;Max_cycle;Signal;HPM_P1;HPM_P2
2022/05/07 00:02:12;;;;;;;4.10;1.27;;;17.10;86.50;;;;;;5079326;28;20024;-76
2022/05/07 00:04:39;;;;;;;4.40;0.73;;;17.10;86.40;;;;;;5077637;28;20016;-72
2022/05/07 00:07:06;;;;;;;19.13;2.38;;;17.10;86.10;;;;;;5081177;28;20024;-73
2022/05/07 00:09:35;;;;;;;12.35;4.45;;;17.10;86.00;;;;;;5082479;28;20103;-69
2022/05/07 00:12:02;;;;;;;9.25;5.35;;;17.10;86.20;;;;;;5077629;28;20105;-74
2022/05/07 00:14:29;;;;;;;7.07;3.10;;;17.10;86.50;;;;;;5073454;28;20024;-76
2022/05/07 00:19:43;;;;;;;5.00;1.90;;;17.10;86.60;;;;;;5076484;28;20509;-80
2022/05/07 00:22:12;;;;;;;3.20;1.92;;;17.10;86.60;;;;;;5075322;28;20127;-78
2022/05/07 00:24:39;;;;;;;8.50;1.45;;;17.10;86.60;;;;;;5073293;28;20016;-71
2022/05/07 00:27:06;;;;;;;4.70;1.48;;;17.10;87.30;;;;;;5078038;28;20021;-70
2022/05/07 00:29:32;;;;;;;10.13;2.35;;;17.10;86.60;;;;;;5078880;28;20048;-75
2022/05/07 00:31:59;;;;;;;6.78;1.75;;;17.10;86.60;;;;;;5074283;28;20021;-72
2022/05/07 00:34:26;;;;;;;7.60;1.50;;;17.10;86.80;;;;;;5072874;28;20578;-77
2022/05/07 00:36:53;;;;;;;5.40;1.75;;;17.10;86.80;;;;;;5079089;28;20027;-71
2022/05/07 00:39:19;;;;;;;4.55;1.58;;;17.10;86.80;;;;;;5078181;28;20451;-68
2022/05/07 00:41:45;;;;;;;4.25;1.35;;;17.10;86.80;;;;;;5078062;28;20397;-72
2022/05/07 00:44:12;;;;;;;2.97;1.30;;;17.10;86.80;;;;;;5079544;28;20609;-80
2022/05/07 00:46:39;;;;;;;5.63;2.22;;;17.10;86.60;;;;;;5077159;28;20028;-78
2022/05/07 00:49:05;;;;;;;4.97;1.35;;;17.00;86.60;;;;;;5079009;28;20678;-68
2022/05/07 00:51:35;;;;;;;2.70;1.52;;;17.00;86.60;;;;;;5082805;28;20028;-80
2022/05/07 00:54:03;;;;;;;5.05;1.55;;;17.00;86.60;;;;;;5081710;28;20017;-69
2022/05/07 00:56:31;;;;;;;5.60;1.75;;;17.00;86.70;;;;;;5077868;28;20105;-73
2022/05/07 00:58:58;;;;;;;4.72;1.10;;;17.00;86.70;;;;;;5080182;28;20016;-76
2022/05/07 01:01:25;;;;;;;8.73;1.23;;;17.00;86.70;;;;;;5077324;28;20040;-83
2022/05/07 01:03:52;;;;;;;3.67;1.35;;;17.00;86.80;;;;;;5078565;28;20037;-85
2022/05/07 01:06:20;;;;;;;4.63;1.50;;;17.00;86.80;;;;;;5077385;28;20095;-83
2022/05/07 01:08:49;;;;;;;4.97;1.00;;;17.00;86.80;;;;;;5081936;28;20048;-74
2022/05/07 01:11:17;;;;;;;5.50;1.38;;;17.00;86.80;;;;;;5080236;28;20037;-71
2022/05/07 01:13:45;;;;;;;8.20;1.05;;;17.00;86.90;;;;;;5081191;28;20494;-80
2022/05/07 01:16:12;;;;;;;4.78;1.17;;;17.00;86.90;;;;;;5077737;28;20028;-82
2022/05/07 01:18:40;;;;;;;4.88;1.30;;;17.00;87.00;;;;;;5080101;28;20044;-76
2022/05/07 01:21:17;;;;;;;9.52;2.10;;;17.00;87.00;;;;;;5083266;28;20028;-83
2022/05/07 01:23:45;;;;;;;3.58;1.23;;;17.00;87.10;;;;;;5079872;28;20483;-81
2022/05/07 01:26:12;;;;;;;4.55;1.00;;;17.00;87.20;;;;;;5082481;28;20028;-78
2022/05/07 01:28:40;;;;;;;12.80;2.38;;;17.00;87.40;;;;;;5078374;28;20029;-76
2022/05/07 01:31:07;;;;;;;6.53;0.95;;;17.00;87.60;;;;;;5081795;28;20498;-69
2022/05/07 01:33:34;;;;;;;4.88;1.58;;;17.00;87.60;;;;;;5076697;28;20024;-75
2022/05/07 01:36:11;;;;;;;5.90;1.80;;;17.00;87.60;;;;;;5090317;28;20017;-75
2022/05/07 01:38:38;;;;;;;3.10;1.13;;;17.00;87.60;;;;;;5076438;28;20024;-72
2022/05/07 01:41:04;;;;;;;4.75;1.35;;;17.00;87.60;;;;;;5078662;28;20100;-76
2022/05/07 01:43:34;;;;;;;5.03;1.63;;;17.00;88.30;;;;;;5080501;28;20426;-72
2022/05/07 01:46:01;;;;;;;4.10;1.23;;;17.00;87.80;;;;;;5076668;28;20027;-74
2022/05/07 01:48:28;;;;;;;7.07;1.10;;;17.00;87.80;;;;;;5077302;28;20009;-71
2022/05/07 01:50:55;;;;;;;2.20;1.13;;;17.00;87.90;;;;;;5075765;28;20040;-77
2022/05/07 01:53:25;;;;;;;4.20;1.42;;;17.00;87.90;;;;;;5077708;28;20062;-74
2022/05/07 01:55:51;;;;;;;7.53;1.35;;;17.00;87.90;;;;;;5077597;28;20107;-69
2022/05/07 01:58:17;;;;;;;19.77;2.83;;;17.00;88.00;;;;;;5075978;28;20032;-73
2022/05/07 02:00:44;;;;;;;6.35;1.40;;;17.00;88.40;;;;;;5079339;28;20540;-82
2022/05/07 02:03:11;;;;;;;4.97;1.23;;;17.00;88.60;;;;;;5082301;28;20021;-84
2022/05/07 02:05:37;;;;;;;4.38;1.58;;;17.00;88.90;;;;;;5082572;28;20534;-73
2022/05/07 02:08:04;;;;;;;5.50;1.10;;;17.00;88.70;;;;;;5080363;28;20038;-82
2022/05/07 02:10:31;;;;;;;9.52;1.80;;;17.00;88.60;;;;;;5074827;28;20032;-81
2022/05/07 02:12:57;;;;;;;4.15;1.73;;;17.00;88.60;;;;;;5079124;28;20081;-78
2022/05/07 02:15:24;;;;;;;4.50;1.67;;;17.00;88.60;;;;;;5081662;28;20028;-80
2022/05/07 02:17:50;;;;;;;8.52;2.53;;;17.00;88.60;;;;;;5086459;28;20145;-88
2022/05/07 02:20:17;;;;;;;8.13;2.42;;;17.00;88.40;;;;;;5089061;28;20040;-78
2022/05/07 02:22:44;;;;;;;6.90;2.78;;;17.00;88.40;;;;;;5083882;28;20028;-87
2022/05/07 02:25:11;;;;;;;6.53;1.58;;;17.00;88.30;;;;;;5085652;28;20017;-86
2022/05/07 02:27:38;;;;;;;5.53;1.77;;;17.00;88.20;;;;;;5088310;28;20027;-82
2022/05/07 02:30:05;;;;;;;15.38;2.20;;;16.90;88.10;;;;;;5079898;28;20028;-86
2022/05/07 02:32:31;;;;;;;20.13;2.58;;;17.00;88.10;;;;;;5089771;28;20027;-86
2022/05/07 02:34:58;;;;;;;17.92;2.50;;;16.90;88.20;;;;;;5078559;28;20045;-81
2022/05/07 02:37:24;;;;;;;11.70;2.25;;;16.90;88.30;;;;;;5089023;28;20459;-80
2022/05/07 02:39:51;;;;;;;16.60;2.92;;;16.90;88.50;;;;;;5089299;28;20091;-84
2022/05/07 02:42:39;;;;;;;16.70;2.67;;;16.90;88.90;;;;;;5082367;28;20647;-88
2022/05/07 02:45:07;;;;;;;27.05;2.70;;;16.90;89.00;;;;;;5089043;28;20027;-79
2022/05/07 02:47:39;;;;;;;8.73;2.58;;;16.90;88.80;;;;;;5083374;28;20016;-87
2022/05/07 02:50:07;;;;;;;12.20;2.25;;;16.90;88.50;;;;;;5089588;28;20039;-88
2022/05/07 02:52:34;;;;;;;5.30;1.38;;;16.90;88.30;;;;;;5082079;28;20023;-76
2022/05/07 02:55:02;;;;;;;8.77;1.80;;;16.90;88.30;;;;;;5083636;28;20035;-85
2022/05/07 02:57:29;;;;;;;12.40;2.10;;;16.90;88.30;;;;;;5089478;28;20535;-89
2022/05/07 02:59:56;;;;;;;6.30;1.08;;;16.90;88.20;;;;;;5087638;28;20013;-83
2022/05/07 03:02:23;;;;;;;4.65;1.55;;;16.80;88.10;;;;;;5088118;28;20008;-89
2022/05/07 03:04:50;;;;;;;9.82;2.60;;;16.80;88.00;;;;;;5081124;28;20460;-80
2022/05/07 03:07:17;;;;;;;7.95;1.85;;;16.80;87.90;;;;;;5089444;28;20034;-77
2022/05/07 03:09:44;;;;;;;22.58;3.25;;;16.80;87.80;;;;;;5084843;28;20044;-75
2022/05/07 03:12:10;;;;;;;18.60;2.08;;;16.80;87.90;;;;;;5080272;28;20012;-76
2022/05/07 03:14:37;;;;;;;6.00;1.60;;;16.80;88.10;;;;;;5082735;28;20020;-69
2022/05/07 03:17:04;;;;;;;9.80;2.20;;;16.80;88.30;;;;;;5083135;28;20027;-81
2022/05/07 03:19:30;;;;;;;4.38;1.27;;;16.80;88.40;;;;;;5083932;28;20047;-72
2022/05/07 03:21:57;;;;;;;5.55;1.92;;;16.80;88.20;;;;;;5080212;28;20103;-73
2022/05/07 03:24:23;;;;;;;14.55;1.77;;;16.80;88.10;;;;;;5084551;28;20025;-70
2022/05/07 03:26:50;;;;;;;6.30;2.03;;;16.80;87.90;;;;;;5080525;28;20107;-69
2022/05/07 03:29:16;;;;;;;7.65;1.77;;;16.80;87.80;;;;;;5080164;28;20032;-77
2022/05/07 03:31:44;;;;;;;8.20;2.45;;;16.80;87.60;;;;;;5084340;28;20117;-75
2022/05/07 03:34:10;;;;;;;6.88;1.35;;;16.80;87.40;;;;;;5079404;28;20020;-69
2022/05/07 03:36:37;;;;;;;7.15;1.60;;;16.80;87.30;;;;;;5082730;28;20032;-78
2022/05/07 03:39:03;;;;;;;9.52;2.25;;;16.70;87.10;;;;;;5079888;28;20017;-74
2022/05/07 03:41:30;;;;;;;9.57;1.65;;;16.80;87.30;;;;;;5078833;28;20023;-72
2022/05/07 03:43:57;;;;;;;3.03;1.80;;;16.80;87.30;;;;;;5077858;28;20374;-69
2022/05/07 03:46:25;;;;;;;4.55;1.55;;;16.80;87.10;;;;;;5076378;28;20016;-71
2022/05/07 03:48:52;;;;;;;11.98;1.92;;;16.80;87.10;;;;;;5075190;28;20366;-71
2022/05/07 03:51:18;;;;;;;8.25;2.53;;;16.70;86.90;;;;;;5081101;28;20027;-74
2022/05/07 03:53:45;;;;;;;5.68;2.03;;;16.70;86.80;;;;;;5081567;28;20020;-72
2022/05/07 03:56:12;;;;;;;10.77;2.90;;;16.70;86.80;;;;;;5078652;28;20055;-72
2022/05/07 03:58:39;;;;;;;14.50;2.00;;;16.70;86.80;;;;;;5082974;28;20063;-83
2022/05/07 04:01:06;;;;;;;6.25;2.78;;;16.70;86.80;;;;;;5076615;28;20503;-83
2022/05/07 04:03:33;;;;;;;11.43;2.75;;;16.80;86.90;;;;;;5078325;28;20066;-77
2022/05/07 04:05:59;;;;;;;8.95;2.75;;;16.80;86.80;;;;;;5083385;28;20022;-71
2022/05/07 04:08:26;;;;;;;6.07;2.00;;;16.80;86.70;;;;;;5077879;28;20108;-85
2022/05/07 04:10:53;;;;;;;10.80;2.97;;;16.80;86.60;;;;;;5080119;28;20029;-81
2022/05/07 04:13:19;;;;;;;13.40;3.25;;;16.80;86.50;;;;;;5078010;28;20023;-81
2022/05/07 04:15:46;;;;;;;9.88;1.65;;;16.70;86.40;;;;;;5077584;28;20445;-81
2022/05/07 04:18:13;;;;;;;10.65;2.03;;;16.70;86.40;;;;;;5078505;28;20440;-88
2022/05/07 04:20:39;;;;;;;26.60;3.63;;;16.70;86.50;;;;;;5081294;28;20027;-85
2022/05/07 04:23:06;;;;;;;11.38;2.17;;;16.70;86.60;;;;;;5085333;28;20058;-88
2022/05/07 04:25:32;;;;;;;9.07;2.67;;;16.70;86.60;;;;;;5085977;28;20395;-87
2022/05/07 04:27:59;;;;;;;8.40;1.65;;;16.70;86.60;;;;;;5082424;28;20056;-82
2022/05/07 04:30:25;;;;;;;8.63;1.67;;;16.70;86.70;;;;;;5079914;28;20063;-81
2022/05/07 04:32:52;;;;;;;12.50;1.73;;;16.60;86.70;;;;;;5078037;28;20013;-83
2022/05/07 04:35:18;;;;;;;6.55;2.80;;;16.60;86.70;;;;;;5080336;28;20462;-73
2022/05/07 04:37:45;;;;;;;7.43;1.60;;;16.60;86.80;;;;;;5079486;28;20035;-84
2022/05/07 04:40:12;;;;;;;3.40;1.27;;;16.70;86.80;;;;;;5081271;28;20066;-83
2022/05/07 04:42:39;;;;;;;25.65;6.78;;;16.60;86.90;;;;;;5078358;28;20013;-81
2022/05/07 04:45:06;;;;;;;20.38;13.30;;;16.60;87.20;;;;;;5081588;28;20028;-83
2022/05/07 04:47:33;;;;;;;16.08;9.68;;;16.60;87.70;;;;;;5082061;28;20016;-82
2022/05/07 04:50:00;;;;;;;9.75;5.38;;;16.60;87.70;;;;;;5083918;28;20071;-80
2022/05/07 04:52:26;;;;;;;8.32;3.20;;;16.60;87.60;;;;;;5077404;28;20031;-82
2022/05/07 04:54:53;;;;;;;5.90;2.67;;;16.60;87.50;;;;;;5081127;28;20604;-75
2022/05/07 04:57:20;;;;;;;4.38;2.03;;;16.60;87.40;;;;;;5078768;28;20078;-71
2022/05/07 04:59:47;;;;;;;8.85;2.40;;;16.60;87.40;;;;;;5075601;28;20097;-76
2022/05/07 05:02:14;;;;;;;9.65;2.15;;;16.60;87.40;;;;;;5083686;28;20118;-81
2022/05/07 05:04:40;;;;;;;10.68;2.38;;;16.60;87.30;;;;;;5080726;28;20020;-83
2022/05/07 05:07:06;;;;;;;5.45;2.28;;;16.60;87.60;;;;;;5086908;28;20024;-80
2022/05/07 05:09:33;;;;;;;9.27;1.73;;;16.60;87.70;;;;;;5083566;28;20120;-85
2022/05/07 05:11:59;;;;;;;41.35;3.80;;;16.50;87.80;;;;;;5087592;28;20459;-78
2022/05/07 05:17:11;;;;;;;6.63;2.63;;;16.50;88.30;;;;;;5087386;28;20092;-89
2022/05/07 05:19:37;;;;;;;10.13;1.92;;;16.60;88.60;;;;;;5089594;28;20056;-83
2022/05/07 05:22:04;;;;;;;11.05;2.35;;;16.60;88.40;;;;;;5086319;28;20020;-82
2022/05/07 05:24:31;;;;;;;14.20;2.10;;;16.60;88.40;;;;;;5084369;28;20033;-85
2022/05/07 05:27:59;;;;;;;21.20;3.28;;;16.50;88.60;;;;;;5088734;28;20658;-85
2022/05/07 05:30:25;;;;;;;15.73;2.13;;;16.50;88.70;;;;;;5088678;28;20059;-87
2022/05/07 05:32:51;;;;;;;17.55;2.97;;;16.60;89.00;;;;;;5088389;28;20015;-80
2022/05/07 05:35:58;;;;;;;43.45;4.50;;;16.60;88.90;;;;;;5080074;28;20052;-89
2022/05/07 05:39:06;;;;;;;36.88;3.88;;;16.60;89.00;;;;;;5086372;28;20032;-86
2022/05/07 05:42:12;;;;;;;20.35;2.75;;;16.60;89.00;;;;;;5079437;28;20024;-77
2022/05/07 05:45:18;;;;;;;7.63;1.38;;;16.60;88.60;;;;;;5080732;28;20371;-82
2022/05/07 05:47:44;;;;;;;14.88;3.17;;;16.60;88.40;;;;;;5088089;28;20023;-79
2022/05/07 05:50:11;;;;;;;17.27;4.68;;;16.60;88.30;;;;;;5082866;28;20032;-84
2022/05/07 05:52:37;;;;;;;28.35;19.42;;;16.60;88.70;;;;;;5082600;28;20038;-80
2022/05/07 05:55:04;;;;;;;18.80;9.27;;;16.60;88.50;;;;;;5081798;28;20052;-76
2022/05/07 05:57:30;;;;;;;9.75;6.10;;;16.60;88.30;;;;;;5081249;28;20508;-77
2022/05/07 05:59:57;;;;;;;10.23;3.70;;;16.50;88.00;;;;;;5084076;28;20538;-72
2022/05/07 06:02:23;;;;;;;8.93;2.70;;;16.50;87.90;;;;;;5085224;28;20027;-78
2022/05/07 06:04:50;;;;;;;6.07;2.53;;;16.50;87.70;;;;;;5082483;28;20028;-81
2022/05/07 06:07:16;;;;;;;5.40;1.85;;;16.50;87.50;;;;;;5087886;28;20024;-77
2022/05/07 06:09:43;;;;;;;12.20;2.20;;;16.50;87.40;;;;;;5081460;28;20031;-70
2022/05/07 06:12:09;;;;;;;10.30;3.63;;;16.50;87.20;;;;;;5082916;28;20031;-67
2022/05/07 06:14:36;;;;;;;30.33;18.13;;;16.50;87.10;;;;;;5082668;28;20065;-77
2022/05/07 06:17:03;;;;;;;19.20;12.48;;;16.50;87.20;;;;;;5081161;28;20097;-76
2022/05/07 06:19:30;;;;;;;15.57;9.00;;;16.50;87.10;;;;;;5081119;28;20032;-71
2022/05/07 06:21:57;;;;;;;12.27;5.43;;;16.50;87.10;;;;;;5083408;28;20035;-80
2022/05/07 06:29:59;;;;;;;7.30;2.25;;;16.50;86.90;;;;;;5083934;28;20122;-78
2022/05/07 06:32:33;;;;;;;10.85;2.00;;;16.50;86.80;;;;;;5083985;28;20107;-76
2022/05/07 06:35:00;;;;;;;7.50;2.00;;;16.60;86.80;;;;;;5080818;28;20458;-76
2022/05/07 06:37:26;;;;;;;25.02;5.88;;;16.50;86.80;;;;;;5081361;28;20012;-74
2022/05/07 06:39:53;;;;;;;31.77;9.60;;;16.60;86.80;;;;;;5087341;28;20046;-76
2022/05/07 06:42:19;;;;;;;17.23;6.57;;;16.50;86.80;;;;;;5077888;28;20032;-76
2022/05/07 06:44:46;;;;;;;16.77;4.45;;;16.60;86.90;;;;;;5080356;28;20379;-71
2022/05/07 06:47:12;;;;;;;7.55;3.08;;;16.50;86.70;;;;;;5083433;28;20013;-70
2022/05/07 06:50:18;;;;;;;5.63;2.35;;;16.50;86.60;;;;;;5079279;28;20044;-78
2022/05/07 06:53:24;;;;;;;6.88;2.88;;;16.60;86.50;;;;;;5082493;28;20019;-72
2022/05/07 06:56:31;;;;;;;7.70;2.05;;;16.60;87.00;;;;;;5086640;28;20538;-77
2022/05/07 06:59:37;;;;;;;3.90;1.55;;;16.60;86.30;;;;;;5079298;28;20020;-70
2022/05/07 07:02:45;;;;;;;6.70;1.52;;;16.60;86.20;;;;;;5076203;28;20031;-77
2022/05/07 07:05:52;;;;;;;9.45;2.28;;;16.60;86.00;;;;;;5085612;28;20024;-71
2022/05/07 07:08:58;;;;;;;6.63;2.30;;;16.60;86.50;;;;;;5084010;28;20477;-69
2022/05/07 07:12:06;;;;;;;4.43;2.10;;;16.60;85.60;;;;;;5081330;28;20499;-73
2022/05/07 07:15:12;;;;;;;9.52;2.00;;;16.50;85.10;;;;;;5081709;28;20008;-74
2022/05/07 07:18:18;;;;;;;4.38;2.15;;;16.50;84.90;;;;;;5080509;28;20020;-77
2022/05/07 07:21:24;;;;;;;4.93;2.53;;;16.50;84.70;;;;;;5082118;28;20070;-74
2022/05/07 07:24:30;;;;;;;5.90;1.95;;;16.50;84.60;;;;;;5085064;28;20471;-71
2022/05/07 07:27:36;;;;;;;6.30;2.08;;;16.60;84.60;;;;;;5083129;28;20428;-74
2022/05/07 07:30:42;;;;;;;2.53;1.50;;;16.60;84.60;;;;;;5080102;28;20493;-76
2022/05/07 07:33:48;;;;;;;4.38;1.50;;;16.60;84.50;;;;;;5081494;28;20031;-69
2022/05/07 07:36:54;;;;;;;4.45;1.42;;;16.60;84.40;;;;;;5082176;28;20491;-68
2022/05/07 07:40:02;;;;;;;8.65;1.70;;;16.60;84.40;;;;;;5082980;28;20035;-71
2022/05/07 07:43:10;;;;;;;4.45;2.10;;;16.60;84.30;;;;;;5080430;28;20025;-69
2022/05/07 07:49:40;;;;;;;6.25;1.77;;;16.70;83.90;;;;;;5081782;28;20089;-69
2022/05/07 07:52:47;;;;;;;5.80;1.63;;;16.70;83.40;;;;;;5082242;28;20016;-71
2022/05/07 07:55:53;;;;;;;3.40;1.38;;;16.70;83.00;;;;;;5079777;28;20030;-67
2022/05/07 07:58:59;;;;;;;3.35;1.27;;;16.70;82.80;;;;;;5080209;28;20046;-74
2022/05/07 08:02:06;;;;;;;1.80;1.00;;;16.70;82.60;;;;;;5076720;28;20024;-68
2022/05/07 08:05:12;;;;;;;6.82;2.22;;;16.70;82.50;;;;;;5083673;28;20031;-67
2022/05/07 08:11:46;;;;;;;4.60;2.08;;;16.80;81.90;;;;;;5084421;28;20073;-73
2022/05/07 08:14:52;;;;;;;4.03;0.93;;;16.80;81.30;;;;;;5084474;28;20982;-74
2022/05/07 08:17:58;;;;;;;6.88;2.15;;;16.80;80.70;;;;;;5080644;28;20069;-68
2022/05/07 08:21:04;;;;;;;6.03;1.27;;;16.80;80.50;;;;;;5080496;28;20132;-71
2022/05/07 08:24:10;;;;;;;4.05;2.22;;;16.80;80.40;;;;;;5080217;28;20402;-79
2022/05/07 08:27:16;;;;;;;2.58;1.50;;;16.90;80.70;;;;;;5081743;28;20020;-77
2022/05/07 08:30:23;;;;;;;4.30;2.10;;;17.00;80.50;;;;;;5080798;28;20035;-77
2022/05/07 08:33:29;;;;;;;5.07;1.60;;;17.00;79.80;;;;;;5080144;28;20410;-75
2022/05/07 08:36:35;;;;;;;4.53;1.50;;;17.00;79.10;;;;;;5082708;28;20013;-82
2022/05/07 08:39:41;;;;;;;8.82;1.83;;;17.10;78.80;;;;;;5077855;28;20012;-82
2022/05/07 08:42:47;;;;;;;4.80;1.48;;;17.20;78.70;;;;;;5077066;28;20479;-76
2022/05/07 08:45:56;;;;;;;4.55;1.30;;;17.30;78.40;;;;;;5076137;28;20498;-75
2022/05/07 08:49:02;;;;;;;3.15;1.73;;;17.30;77.80;;;;;;5085160;28;20085;-74
2022/05/07 08:52:08;;;;;;;6.43;2.53;;;17.40;77.70;;;;;;5080648;28;20043;-77
2022/05/07 08:55:14;;;;;;;4.88;2.47;;;17.40;77.50;;;;;;5079663;28;20513;-69
2022/05/07 08:58:20;;;;;;;2.88;1.23;;;17.50;77.50;;;;;;5078103;28;20031;-77
2022/05/07 09:01:26;;;;;;;6.85;1.70;;;17.50;77.40;;;;;;5077112;28;20016;-70
2022/05/07 09:04:33;;;;;;;4.22;0.90;;;17.60;76.80;;;;;;5077620;28;20021;-74
2022/05/07 09:07:40;;;;;;;2.10;0.80;;;17.70;76.20;;;;;;5082544;28;20556;-78
2022/05/07 09:10:57;;;;;;;2.17;0.75;;;17.70;75.80;;;;;;5081830;28;20024;-72
2022/05/07 09:14:04;;;;;;;2.60;1.00;;;17.80;75.20;;;;;;5077940;28;20038;-74
2022/05/07 09:17:03;;;;;;;2.05;0.47;;;17.90;74.70;;;;;;5078102;28;20498;-74
2022/05/07 09:20:09;;;;;;;4.80;1.20;;;17.90;74.10;;;;;;5078614;28;20044;-77
2022/05/07 09:23:15;;;;;;;7.28;1.10;;;18.00;73.80;;;;;;5081773;28;20036;-78
2022/05/07 09:26:24;;;;;;;5.50;1.48;;;18.10;73.80;;;;;;5080402;28;20683;-78
2022/05/07 09:29:30;;;;;;;3.72;0.93;;;18.20;73.50;;;;;;5083401;28;20024;-76
2022/05/07 09:32:37;;;;;;;5.57;0.85;;;18.30;72.80;;;;;;5079038;28;20031;-76
2022/05/07 09:35:49;;;;;;;5.13;0.98;;;18.30;72.40;;;;;;5084693;28;20025;-81
2022/05/07 09:38:55;;;;;;;5.60;0.63;;;18.40;71.80;;;;;;5086891;28;20016;-80
2022/05/07 09:42:01;;;;;;;5.70;1.58;;;18.40;71.30;;;;;;5085194;28;20051;-82
2022/05/07 09:45:07;;;;;;;7.57;1.63;;;18.50;70.90;;;;;;5086686;28;20055;-75
2022/05/07 09:48:13;;;;;;;4.50;0.80;;;18.50;70.40;;;;;;5081148;28;20024;-78
2022/05/07 09:51:19;;;;;;;3.92;1.10;;;18.60;70.50;;;;;;5081379;28;20479;-74
2022/05/07 09:57:50;;;;;;;5.32;0.95;;;18.70;69.90;;;;;;5080916;28;20099;-73
2022/05/07 10:00:57;;;;;;;6.25;1.05;;;18.80;69.10;;;;;;5079541;28;20047;-79
2022/05/07 10:03:43;;;;;;;5.78;1.10;;;18.90;68.30;;;;;;5080516;28;20020;-80
2022/05/07 10:06:22;;;;;;;4.22;1.02;;;18.90;67.80;;;;;;5078688;28;20016;-76
2022/05/07 10:09:26;;;;;;;5.55;1.05;;;18.90;67.60;;;;;;5084810;28;20056;-79
2022/05/07 10:12:38;;;;;;;2.00;0.88;;;19.00;67.20;;;;;;5083736;28;20102;-79
2022/05/07 10:15:12;;;;;;;2.30;0.52;;;19.10;66.90;;;;;;5082172;28;20028;-78
2022/05/07 10:17:38;;;;;;;3.15;0.70;;;19.10;66.30;;;;;;5082437;28;20111;-73
2022/05/07 10:20:13;;;;;;;5.05;1.30;;;19.20;66.00;;;;;;5085522;28;20099;-81
2022/05/07 10:22:40;;;;;;;4.00;0.80;;;19.20;65.30;;;;;;5079621;28;20107;-79
2022/05/07 10:25:15;;;;;;;1.85;0.55;;;19.20;64.50;;;;;;5082600;28;20076;-79
2022/05/07 10:27:43;;;;;;;4.10;0.60;;;19.20;64.70;;;;;;5082213;28;20028;-75
2022/05/07 10:30:15;;;;;;;2.38;0.70;;;19.20;64.40;;;;;;5085464;28;20038;-75
2022/05/07 10:32:58;;;;;;;14.05;0.95;;;19.20;64.40;;;;;;5077337;28;20056;-79
2022/05/07 10:35:44;;;;;;;6.43;0.82;;;19.20;64.00;;;;;;5077380;28;20094;-77
2022/05/07 10:38:15;;;;;;;25.38;2.10;;;19.30;64.30;;;;;;5086399;28;20036;-76
2022/05/07 10:40:59;;;;;;;8.05;0.98;;;19.30;64.30;;;;;;5081619;28;20058;-79
2022/05/07 10:43:42;;;;;;;5.55;0.90;;;19.30;64.60;;;;;;5080396;28;20055;-78
2022/05/07 10:46:16;;;;;;;8.60;1.23;;;19.40;63.90;;;;;;5085651;28;20371;-72
2022/05/07 10:48:50;;;;;;;17.53;2.00;;;19.40;63.40;;;;;;5084660;28;20101;-75
2022/05/07 10:51:30;;;;;;;11.20;2.33;;;19.50;63.10;;;;;;5082361;28;20009;-77
2022/05/07 10:54:00;;;;;;;38.92;4.43;;;19.50;63.20;;;;;;5081697;28;20025;-74
2022/05/07 10:56:28;;;;;;;10.13;5.80;;;19.60;63.40;;;;;;5078942;28;20403;-70
2022/05/07 10:58:57;;;;;;;15.07;3.88;;;19.60;63.60;;;;;;5084731;28;20012;-77
2022/05/07 11:01:26;;;;;;;5.63;3.03;;;19.60;62.80;;;;;;5082219;28;20027;-73
2022/05/07 11:04:06;;;;;;;6.15;1.40;;;19.70;62.50;;;;;;5083903;28;20290;-73
2022/05/07 11:06:53;;;;;;;3.15;1.70;;;19.70;62.10;;;;;;5084521;28;20494;-76
2022/05/07 11:09:25;;;;;;;13.68;1.73;;;19.80;61.50;;;;;;5081655;28;20053;-74
2022/05/07 11:11:54;;;;;;;17.95;2.10;;;19.90;60.50;;;;;;5084775;28;20521;-80
2022/05/07 11:14:35;;;;;;;9.27;1.45;;;19.90;60.70;;;;;;5079128;28;20528;-73
2022/05/07 11:17:06;;;;;;;4.13;1.67;;;19.90;60.90;;;;;;5084483;28;20024;-73
2022/05/07 11:19:37;;;;;;;10.20;1.98;;;20.00;61.50;;;;;;5078450;28;20473;-75
2022/05/07 11:22:08;;;;;;;7.32;2.35;;;20.00;61.70;;;;;;5080866;28;20019;-74
2022/05/07 11:24:36;;;;;;;11.43;3.75;;;20.10;61.50;;;;;;5085111;28;20028;-74
2022/05/07 11:27:05;;;;;;;8.73;1.85;;;20.10;61.10;;;;;;5078854;28;20095;-71
2022/05/07 11:29:36;;;;;;;3.65;2.28;;;20.10;60.20;;;;;;5082295;28;20023;-73
2022/05/07 11:32:08;;;;;;;5.18;1.55;;;20.20;60.20;;;;;;5083234;28;20070;-74
2022/05/07 11:34:38;;;;;;;6.63;1.15;;;20.20;60.20;;;;;;5081080;28;20027;-75
2022/05/07 11:37:15;;;;;;;7.80;1.40;;;20.20;60.30;;;;;;5080817;28;20023;-75
2022/05/07 11:39:57;;;;;;;7.55;1.65;;;20.30;60.50;;;;;;5080111;28;20104;-75
2022/05/07 11:42:28;;;;;;;4.57;1.27;;;20.30;59.90;;;;;;5081914;28;20566;-75
2022/05/07 11:48:07;;;;;;;7.25;1.25;;;20.30;59.60;;;;;;5076231;28;20051;-75
2022/05/07 11:50:41;;;;;;;5.35;1.15;;;20.40;59.70;;;;;;5078223;28;20078;-73
2022/05/07 11:53:13;;;;;;;3.50;0.90;;;20.40;59.90;;;;;;5076792;28;20043;-75
2022/05/07 11:55:40;;;;;;;4.05;1.38;;;20.40;59.80;;;;;;5075034;28;20059;-77
2022/05/07 11:58:23;;;;;;;6.72;1.05;;;20.50;59.70;;;;;;5074264;28;20025;-76
2022/05/07 12:00:54;;;;;;;6.68;1.05;;;20.50;59.80;;;;;;5075235;28;20423;-77
2022/05/07 12:03:28;;;;;;;2.45;1.27;;;20.50;60.30;;;;;;5074020;28;20052;-77
2022/05/07 12:05:56;;;;;;;4.75;0.95;;;20.50;60.30;;;;;;5080944;28;20672;-77
2022/05/07 12:08:32;;;;;;;7.03;1.65;;;20.50;60.70;;;;;;5074214;28;20027;-77
2022/05/07 12:11:02;;;;;;;23.60;2.85;;;20.60;61.40;;;;;;5074255;28;20032;-78
2022/05/07 12:13:29;;;;;;;17.83;2.53;;;20.60;61.60;;;;;;5074474;28;20016;-76
2022/05/07 12:18:51;;;;;;;11.13;1.60;;;20.60;62.00;;;;;;5078393;28;20518;-79
2022/05/07 12:21:17;;;;;;;;;;;20.60;62.40;;;;;;5075280;28;20495;-79
2022/05/07 12:32:09;;;;;;;5.13;1.67;;;20.70;62.20;;;;;;5073465;28;20109;-75
2022/05/07 12:34:36;;;;;;;5.30;1.40;;;20.80;61.50;;;;;;5074103;28;20146;-75
2022/05/07 12:37:04;;;;;;;9.77;2.10;;;20.80;61.70;;;;;;5077035;28;20020;-74
2022/05/07 12:39:30;;;;;;;7.78;2.00;;;20.80;61.40;;;;;;5074968;28;20364;-79
2022/05/07 12:42:04;;;;;;;6.95;2.28;;;20.90;61.10;;;;;;5073368;28;20520;-74
2022/05/07 12:44:31;;;;;;;10.80;2.03;;;20.90;60.90;;;;;;5073429;28;20035;-74
2022/05/07 12:46:58;;;;;;;12.75;3.55;;;20.80;60.00;;;;;;5077273;28;20032;-76
2022/05/07 12:49:24;;;;;;;11.45;5.93;;;20.90;60.10;;;;;;5072933;28;20082;-75
2022/05/07 12:51:55;;;;;;;21.63;11.93;;;20.90;59.60;;;;;;5073366;28;20047;-74
2022/05/07 12:54:22;;;;;;;19.35;8.88;;;20.90;60.10;;;;;;5069893;28;20024;-72
2022/05/07 12:56:49;;;;;;;19.25;7.38;;;20.90;60.20;;;;;;5070719;28;20077;-70
2022/05/07 12:59:19;;;;;;;16.02;7.40;;;20.80;60.10;;;;;;5078661;28;20111;-76
2022/05/07 13:01:45;;;;;;;13.50;5.78;;;20.80;60.20;;;;;;5075182;28;20024;-75
2022/05/07 13:04:12;;;;;;;13.93;4.53;;;20.80;60.20;;;;;;5072565;28;20013;-74
2022/05/07 13:06:57;;;;;;;7.07;3.95;;;20.80;59.70;;;;;;5075252;28;20028;-75
2022/05/07 13:09:25;;;;;;;;;;;20.80;59.40;;;;;;5075782;28;20040;-75
2022/05/07 13:11:51;;;;;;;5.65;2.25;;;20.80;59.20;;;;;;5079487;28;20411;-73
2022/05/07 13:14:18;;;;;;;26.73;8.52;;;20.70;58.60;;;;;;5079018;28;20028;-77
2022/05/07 13:16:45;;;;;;;9.57;4.85;;;20.80;58.70;;;;;;5079940;28;20104;-72
2022/05/07 13:19:11;;;;;;;11.43;4.13;;;20.70;57.80;;;;;;5077151;28;20063;-75
2022/05/07 13:21:41;;;;;;;13.50;4.40;;;20.70;58.30;;;;;;5074620;28;20020;-70
2022/05/07 13:24:11;;;;;;;14.13;3.38;;;20.70;57.90;;;;;;5074078;28;20492;-71
2022/05/07 13:26:57;;;;;;;4.95;2.25;;;20.70;57.80;;;;;;5075370;28;20028;-71
2022/05/07 13:29:34;;;;;;;14.30;3.05;;;20.70;57.60;;;;;;5079516;28;20032;-73
2022/05/07 13:32:07;;;;;;;8.20;2.83;;;20.70;57.10;;;;;;5072146;28;20028;-71
2022/05/07 13:34:33;;;;;;;6.38;1.63;;;20.60;56.90;;;;;;5076579;28;20048;-71
2022/05/07 13:37:00;;;;;;;56.63;5.65;;;20.50;56.50;;;;;;5078450;28;20103;-74
2022/05/07 13:39:35;;;;;;;56.67;4.35;;;20.60;56.90;;;;;;5079488;28;20028;-79
2022/05/07 13:42:03;;;;;;;98.75;9.15;;;20.60;56.90;;;;;;5075584;28;20486;-73
2022/05/07 13:44:30;;;;;;;41.30;6.82;;;20.60;57.30;;;;;;5081563;28;20056;-79
2022/05/07 13:46:57;;;;;;;22.40;3.55;;;20.50;57.10;;;;;;5075032;28;20048;-77
2022/05/07 13:49:23;;;;;;;12.20;2.65;;;20.50;56.70;;;;;;5077843;28;20014;-77
2022/05/07 13:51:50;;;;;;;9.73;1.88;;;20.50;56.60;;;;;;5073271;28;20040;-77
2022/05/07 13:54:17;;;;;;;9.55;2.00;;;20.50;56.10;;;;;;5078352;28;20023;-80
2022/05/07 13:56:44;;;;;;;7.95;2.00;;;20.40;56.40;;;;;;5076068;28;20056;-78
2022/05/07 13:59:15;;;;;;;22.17;2.13;;;20.40;56.30;;;;;;5075905;28;20036;-79
2022/05/07 14:01:41;;;;;;;13.50;2.05;;;20.40;56.00;;;;;;5073978;28;20024;-80
2022/05/07 14:04:08;;;;;;;15.38;3.88;;;20.40;56.10;;;;;;5074308;28;20020;-79
2022/05/07 14:06:35;;;;;;;20.85;2.35;;;20.40;55.80;;;;;;5080867;28;20031;-81
2022/05/07 14:09:01;;;;;;;3.90;1.30;;;20.40;55.50;;;;;;5075580;28;20023;-78